Time;durP1;ratioP1;P1;durP2;ratioP2;P2;SDS_P1;SDS_P2;PMS_P1;PMS_P2;Temp;Humidity;BMP_temperature;BMP_pressure;BME280_temperature;BME280_humidity;BME280_pressure;Samples;Min_cycle;Max_cycle;Signal;HPM_P1;HPM_P2
2023/04/06 00:01:33;;;;;;;12.17;9.00;;;;;;;;;;5066322;28;20207;-65
2023/04/06 00:04:00;;;;;;;11.10;9.30;;;;;;;;;;5059332;28;20215;-63
2023/04/06 00:06:28;;;;;;;12.90;9.20;;;;;;;;;;5065254;28;20208;-66
2023/04/06 00:08:56;;;;;;;12.77;9.17;;;;;;;;;;5068486;28;20592;-65
2023/04/06 00:11:23;;;;;;;12.70;9.13;;;;;;;;;;5072147;28;20214;-65
2023/04/06 00:13:51;;;;;;;10.73;9.00;;;;;;;;;;5071465;28;20246;-65
2023/04/06 00:16:19;;;;;;;12.03;9.87;;;;;;;;;;5071219;28;20234;-63
2023/04/06 00:18:50;;;;;;;14.70;10.33;;;;;;;;;;5089945;28;20297;-65
2023/04/06 00:21:18;;;;;;;18.53;12.00;;;;;;;;;;5070622;28;20214;-65
2023/04/06 00:23:45;;;;;;;16.17;12.47;;;;;;;;;;5072840;28;20235;-63
2023/04/06 00:26:12;;;;;;;17.93;12.93;;;;;;;;;;5068892;28;20654;-64
2023/04/06 00:28:40;;;;;;;16.57;13.20;;;;;;;;;;5090168;28;20691;-65
2023/04/06 00:31:07;;;;;;;16.00;12.03;;;;;;;;;;5072810;28;20221;-64
2023/04/06 00:33:35;;;;;;;13.57;12.10;;;;;;;;;;5065313;28;20210;-64
2023/04/06 00:36:02;;;;;;;17.37;12.23;;;;;;;;;;5056371;28;20305;-62
2023/04/06 00:38:30;;;;;;;15.57;12.17;;;;;;;;;;5069661;28;20236;-65
2023/04/06 00:40:58;;;;;;;14.70;10.97;;;;;;;;;;5083216;28;20217;-65
2023/04/06 00:43:26;;;;;;;14.77;11.43;;;;;;;;;;5081849;28;20675;-65
2023/04/06 00:45:54;;;;;;;13.67;10.47;;;;;;;;;;5078430;28;20237;-64
2023/04/06 00:48:22;;;;;;;15.43;10.77;;;;;;;;;;5069208;28;20326;-64
2023/04/06 00:50:50;;;;;;;13.87;10.30;;;;;;;;;;5076802;28;20210;-65
2023/04/06 00:53:17;;;;;;;14.27;10.60;;;;;;;;;;5075079;28;20196;-63
2023/04/06 00:55:45;;;;;;;13.67;10.73;;;;;;;;;;5079156;28;20235;-62
2023/04/06 00:58:13;;;;;;;13.07;9.70;;;;;;;;;;5064758;28;20238;-64
2023/04/06 01:00:41;;;;;;;16.57;10.30;;;;;;;;;;5064067;28;20272;-64
2023/04/06 01:03:09;;;;;;;12.67;9.70;;;;;;;;;;5076467;28;20736;-64
2023/04/06 01:05:40;;;;;;;12.97;9.93;;;;;;;;;;5064929;28;22440;-64
2023/04/06 01:08:08;;;;;;;11.17;9.63;;;;;;;;;;5080481;28;20255;-64
2023/04/06 01:10:36;;;;;;;14.50;11.43;;;;;;;;;;5080589;28;20214;-64
2023/04/06 01:13:04;;;;;;;12.37;10.10;;;;;;;;;;5083168;28;20294;-64
2023/04/06 01:15:34;;;;;;;13.80;11.17;;;;;;;;;;5069962;28;20606;-63
2023/04/06 01:18:02;;;;;;;17.13;11.50;;;;;;;;;;5066095;28;20220;-63
2023/04/06 01:20:30;;;;;;;18.50;13.10;;;;;;;;;;5085066;28;20210;-64
2023/04/06 01:22:58;;;;;;;14.33;11.77;;;;;;;;;;5067801;28;20205;-62
2023/04/06 01:25:26;;;;;;;15.33;11.73;;;;;;;;;;5067680;28;20271;-64
2023/04/06 01:27:53;;;;;;;14.67;11.13;;;;;;;;;;5061055;28;20234;-64
2023/04/06 01:30:21;;;;;;;13.40;10.73;;;;;;;;;;5065061;28;20219;-64
2023/04/06 01:32:49;;;;;;;11.97;10.47;;;;;;;;;;5062658;28;20209;-64
2023/04/06 01:35:18;;;;;;;14.13;10.97;;;;;;;;;;5061341;28;20225;-64
2023/04/06 01:37:46;;;;;;;14.13;10.63;;;;;;;;;;5062301;28;20720;-64
2023/04/06 01:40:14;;;;;;;14.93;11.17;;;;;;;;;;5082999;28;20684;-63
2023/04/06 01:42:42;;;;;;;15.17;11.17;;;;;;;;;;5065418;28;20243;-63
2023/04/06 01:45:10;;;;;;;14.83;11.30;;;;;;;;;;5063523;28;20217;-63
2023/04/06 01:47:37;;;;;;;19.27;12.60;;;;;;;;;;5066220;28;20233;-64
2023/04/06 01:50:06;;;;;;;15.37;12.60;;;;;;;;;;5065263;28;20215;-64
2023/04/06 01:52:33;;;;;;;15.07;11.97;;;;;;;;;;5062232;28;20262;-63
2023/04/06 01:55:01;;;;;;;16.50;12.13;;;;;;;;;;5070625;28;20255;-64
2023/04/06 01:57:29;;;;;;;17.33;12.73;;;;;;;;;;5068618;28;20310;-63
2023/04/06 01:59:57;;;;;;;19.00;14.27;;;;;;;;;;5078788;28;20219;-63
2023/04/06 02:02:25;;;;;;;24.73;15.67;;;;;;;;;;5079740;28;20664;-63
2023/04/06 02:04:53;;;;;;;19.50;14.10;;;;;;;;;;5063421;28;20212;-64
2023/04/06 02:07:21;;;;;;;18.80;12.60;;;;;;;;;;5078218;28;20255;-63
2023/04/06 02:09:48;;;;;;;16.53;13.17;;;;;;;;;;5063889;28;20702;-64
2023/04/06 02:12:16;;;;;;;14.77;11.13;;;;;;;;;;5064908;28;20273;-63
2023/04/06 02:14:44;;;;;;;14.40;10.63;;;;;;;;;;5069710;28;20197;-64
2023/04/06 02:17:11;;;;;;;17.60;11.87;;;;;;;;;;5087547;28;20236;-63
2023/04/06 02:19:39;;;;;;;14.80;12.00;;;;;;;;;;5087712;28;20205;-62
2023/04/06 02:22:06;;;;;;;18.27;13.23;;;;;;;;;;5088635;28;20273;-63
2023/04/06 02:24:35;;;;;;;16.37;13.57;;;;;;;;;;5061904;28;20240;-63
2023/04/06 02:27:02;;;;;;;18.23;12.80;;;;;;;;;;5069499;28;20300;-64
2023/04/06 02:29:30;;;;;;;13.17;10.50;;;;;;;;;;5065821;28;20224;-64
2023/04/06 02:31:58;;;;;;;15.10;11.33;;;;;;;;;;5071764;28;20351;-64
2023/04/06 02:34:26;;;;;;;15.63;11.47;;;;;;;;;;5083306;28;20289;-64
2023/04/06 02:36:54;;;;;;;14.70;11.17;;;;;;;;;;5062518;28;20227;-62
2023/04/06 02:39:22;;;;;;;15.37;11.67;;;;;;;;;;5071962;28;20217;-64
2023/04/06 02:41:50;;;;;;;16.10;11.87;;;;;;;;;;5058981;28;20208;-64
2023/04/06 02:44:18;;;;;;;15.97;12.87;;;;;;;;;;5062886;28;20201;-64
2023/04/06 02:46:45;;;;;;;18.23;12.83;;;;;;;;;;5062557;28;20204;-62
2023/04/06 02:49:13;;;;;;;18.33;13.33;;;;;;;;;;5067751;28;20340;-64
2023/04/06 02:51:41;;;;;;;18.40;13.97;;;;;;;;;;5080603;28;20222;-63
2023/04/06 02:54:08;;;;;;;17.67;13.10;;;;;;;;;;5065720;28;20210;-64
2023/04/06 02:56:36;;;;;;;18.97;13.37;;;;;;;;;;5064052;28;20244;-64
2023/04/06 02:59:04;;;;;;;17.17;13.53;;;;;;;;;;5065862;28;20411;-65
2023/04/06 03:01:32;;;;;;;19.37;14.03;;;;;;;;;;5062515;28;20232;-65
2023/04/06 03:03:59;;;;;;;17.17;12.73;;;;;;;;;;5071535;28;20289;-65
2023/04/06 03:06:27;;;;;;;18.53;13.43;;;;;;;;;;5086889;28;20218;-64
2023/04/06 03:08:55;;;;;;;16.30;12.80;;;;;;;;;;5063057;28;20304;-63
2023/04/06 03:11:23;;;;;;;17.20;12.40;;;;;;;;;;5067485;28;20642;-63
2023/04/06 03:13:51;;;;;;;18.43;13.33;;;;;;;;;;5082977;28;20955;-66
2023/04/06 03:16:19;;;;;;;17.97;14.40;;;;;;;;;;5084117;28;20233;-63
2023/04/06 03:18:47;;;;;;;19.87;13.53;;;;;;;;;;5080102;28;20226;-65
2023/04/06 03:21:19;;;;;;;21.40;14.50;;;;;;;;;;5062552;28;20233;-65
2023/04/06 03:23:49;;;;;;;20.57;14.57;;;;;;;;;;5065004;28;20232;-65
2023/04/06 03:26:17;;;;;;;18.93;14.20;;;;;;;;;;5066948;28;20208;-63
2023/04/06 03:28:45;;;;;;;22.07;15.27;;;;;;;;;;5066439;28;20244;-65
2023/04/06 03:31:12;;;;;;;19.27;13.93;;;;;;;;;;5063771;28;20221;-65
2023/04/06 03:33:40;;;;;;;20.00;12.40;;;;;;;;;;5049722;28;20213;-66
2023/04/06 03:36:08;;;;;;;15.47;12.33;;;;;;;;;;5078723;28;20879;-64
2023/04/06 03:38:36;;;;;;;16.77;12.77;;;;;;;;;;5064262;28;20282;-65
2023/04/06 03:41:07;;;;;;;20.13;12.77;;;;;;;;;;5074501;28;20667;-63
2023/04/06 03:43:34;;;;;;;16.97;13.00;;;;;;;;;;5067891;28;20688;-64
2023/04/06 03:46:02;;;;;;;15.30;12.40;;;;;;;;;;5066282;28;20201;-64
2023/04/06 03:48:31;;;;;;;17.37;12.00;;;;;;;;;;5070304;28;20324;-64
2023/04/06 03:50:58;;;;;;;17.10;12.30;;;;;;;;;;5065644;28;20205;-65
2023/04/06 03:53:26;;;;;;;16.17;11.97;;;;;;;;;;5078024;28;20211;-65
2023/04/06 03:55:54;;;;;;;19.33;11.97;;;;;;;;;;5060945;28;20269;-65
2023/04/06 03:58:22;;;;;;;20.27;12.53;;;;;;;;;;5060162;28;20255;-66
2023/04/06 04:00:49;;;;;;;17.53;11.17;;;;;;;;;;5065992;28;20265;-65
2023/04/06 04:03:17;;;;;;;16.87;11.50;;;;;;;;;;5062385;28;20209;-64
2023/04/06 04:05:45;;;;;;;16.63;11.23;;;;;;;;;;5077899;28;20205;-63
2023/04/06 04:08:13;;;;;;;14.43;10.57;;;;;;;;;;5064207;28;20664;-64
2023/04/06 04:10:41;;;;;;;16.27;11.00;;;;;;;;;;5067606;28;20274;-65
2023/04/06 04:13:09;;;;;;;14.43;10.80;;;;;;;;;;5075045;28;20205;-65
2023/04/06 04:15:36;;;;;;;19.13;11.27;;;;;;;;;;5073729;28;20204;-64
2023/04/06 04:18:04;;;;;;;16.23;10.80;;;;;;;;;;5092724;28;20223;-65
2023/04/06 04:20:32;;;;;;;16.83;10.67;;;;;;;;;;5093138;28;20247;-65
2023/04/06 04:23:00;;;;;;;17.97;11.30;;;;;;;;;;5075186;28;20208;-64
2023/04/06 04:25:28;;;;;;;20.47;11.67;;;;;;;;;;5074084;28;20204;-65
2023/04/06 04:27:55;;;;;;;17.40;11.47;;;;;;;;;;5071538;28;20262;-65
2023/04/06 04:30:23;;;;;;;19.37;13.10;;;;;;;;;;5074718;28;20420;-65
2023/04/06 04:32:51;;;;;;;19.23;12.90;;;;;;;;;;5058224;28;20193;-63
2023/04/06 04:35:18;;;;;;;18.63;12.60;;;;;;;;;;5093147;28;20254;-65
2023/04/06 04:37:47;;;;;;;16.90;12.97;;;;;;;;;;5074434;28;20766;-65
2023/04/06 04:40:15;;;;;;;28.53;13.77;;;;;;;;;;5067213;28;20283;-63
2023/04/06 04:42:43;;;;;;;21.13;12.37;;;;;;;;;;5075910;28;20292;-65
2023/04/06 04:45:11;;;;;;;25.30;13.13;;;;;;;;;;5064188;28;20654;-65
2023/04/06 04:47:39;;;;;;;18.33;12.00;;;;;;;;;;5064206;28;20232;-65
2023/04/06 04:50:10;;;;;;;18.50;14.57;;;;;;;;;;5071512;28;20204;-65
2023/04/06 04:52:38;;;;;;;21.70;13.87;;;;;;;;;;5074285;28;20611;-64
2023/04/06 04:55:06;;;;;;;24.20;14.30;;;;;;;;;;5071360;28;20212;-65
2023/04/06 04:57:33;;;;;;;17.60;12.40;;;;;;;;;;5080694;28;20236;-65
2023/04/06 05:00:02;;;;;;;24.00;13.30;;;;;;;;;;5064419;28;20257;-65
2023/04/06 05:02:30;;;;;;;17.20;11.73;;;;;;;;;;5060007;28;20201;-65
2023/04/06 05:04:58;;;;;;;22.00;12.67;;;;;;;;;;5075979;28;20205;-64
2023/04/06 05:07:26;;;;;;;18.70;11.83;;;;;;;;;;5059909;28;20216;-65
2023/04/06 05:09:53;;;;;;;16.10;10.77;;;;;;;;;;5063791;28;20208;-64
2023/04/06 05:12:21;;;;;;;19.00;11.63;;;;;;;;;;5069970;28;20213;-63
2023/04/06 05:14:49;;;;;;;25.13;12.97;;;;;;;;;;5062303;28;20231;-64
2023/04/06 05:17:16;;;;;;;17.27;12.50;;;;;;;;;;5065915;28;20702;-63
2023/04/06 05:19:44;;;;;;;20.30;13.73;;;;;;;;;;5060934;28;20207;-65
2023/04/06 05:22:14;;;;;;;26.70;13.30;;;;;;;;;;5074041;28;20670;-65
2023/04/06 05:24:41;;;;;;;25.23;14.80;;;;;;;;;;5064218;28;20205;-65
2023/04/06 05:27:09;;;;;;;26.47;14.97;;;;;;;;;;5075761;28;20205;-65
2023/04/06 05:29:37;;;;;;;30.80;14.97;;;;;;;;;;5061167;28;20666;-64
2023/04/06 05:32:05;;;;;;;35.53;15.97;;;;;;;;;;5060949;28;20630;-65
2023/04/06 05:34:33;;;;;;;28.60;16.10;;;;;;;;;;5062552;28;20197;-65
2023/04/06 05:37:01;;;;;;;28.40;15.77;;;;;;;;;;5059953;28;20240;-66
2023/04/06 05:39:29;;;;;;;31.33;18.47;;;;;;;;;;5081817;28;20217;-65
2023/04/06 05:41:57;;;;;;;39.07;19.17;;;;;;;;;;5063776;28;20208;-66
2023/04/06 05:44:25;;;;;;;35.67;20.20;;;;;;;;;;5079011;28;20229;-65
2023/04/06 05:46:52;;;;;;;37.97;20.20;;;;;;;;;;5061964;28;20675;-65
2023/04/06 05:49:20;;;;;;;33.97;19.17;;;;;;;;;;5079138;28;20594;-65
2023/04/06 05:51:48;;;;;;;37.90;19.70;;;;;;;;;;5065115;28;20694;-65
2023/04/06 05:54:16;;;;;;;39.83;21.13;;;;;;;;;;5082840;28;20200;-66
2023/04/06 05:56:43;;;;;;;37.93;20.73;;;;;;;;;;5080661;28;20244;-66
2023/04/06 05:59:11;;;;;;;35.80;21.03;;;;;;;;;;5052978;28;20221;-65
2023/04/06 06:01:39;;;;;;;37.03;20.87;;;;;;;;;;5063005;28;20259;-64
2023/04/06 06:04:07;;;;;;;46.10;22.20;;;;;;;;;;5056918;28;20260;-65
2023/04/06 06:06:35;;;;;;;54.87;25.53;;;;;;;;;;5067378;28;20206;-66
2023/04/06 06:09:03;;;;;;;65.93;25.93;;;;;;;;;;5066472;28;20236;-65
2023/04/06 06:11:30;;;;;;;65.40;25.13;;;;;;;;;;5056658;28;20498;-65
2023/04/06 06:13:59;;;;;;;56.53;21.73;;;;;;;;;;5053578;28;20250;-64
2023/04/06 06:16:26;;;;;;;38.13;16.93;;;;;;;;;;5075695;28;20217;-65
2023/04/06 06:18:53;;;;;;;36.13;17.97;;;;;;;;;;5082432;28;20221;-65
2023/04/06 06:21:21;;;;;;;32.73;17.07;;;;;;;;;;5064160;28;20220;-65
2023/04/06 06:23:50;;;;;;;34.33;15.97;;;;;;;;;;5061946;28;20199;-65
2023/04/06 06:26:17;;;;;;;31.37;14.30;;;;;;;;;;5058627;28;20755;-65
2023/04/06 06:28:45;;;;;;;28.20;14.27;;;;;;;;;;5059641;28;20708;-65
2023/04/06 06:31:12;;;;;;;29.37;14.23;;;;;;;;;;5067881;28;20278;-65
2023/04/06 06:33:41;;;;;;;26.87;13.23;;;;;;;;;;5048393;28;20209;-64
2023/04/06 06:36:09;;;;;;;37.87;13.53;;;;;;;;;;5084526;28;20221;-65
2023/04/06 06:38:38;;;;;;;26.40;13.13;;;;;;;;;;5064576;28;20221;-63
2023/04/06 06:41:05;;;;;;;22.60;12.47;;;;;;;;;;5069218;28;20243;-64
2023/04/06 06:43:32;;;;;;;26.23;12.53;;;;;;;;;;5069403;28;20226;-65
2023/04/06 06:46:00;;;;;;;26.33;12.20;;;;;;;;;;5085421;28;20206;-65
2023/04/06 06:48:28;;;;;;;21.70;12.33;;;;;;;;;;5070355;28;20314;-65
2023/04/06 06:50:56;;;;;;;24.60;13.10;;;;;;;;;;5058521;28;20247;-66
2023/04/06 06:53:24;;;;;;;26.27;13.50;;;;;;;;;;5068610;28;20244;-65
2023/04/06 06:55:51;;;;;;;19.63;11.60;;;;;;;;;;5071395;28;20228;-65
2023/04/06 06:58:22;;;;;;;18.77;10.77;;;;;;;;;;5071464;28;20319;-64
2023/04/06 07:00:50;;;;;;;20.00;11.93;;;;;;;;;;5070272;28;20617;-65
2023/04/06 07:03:17;;;;;;;20.00;12.33;;;;;;;;;;5073227;28;20265;-65
2023/04/06 07:05:52;;;;;;;17.03;11.57;;;;;;;;;;5072617;28;20204;-65
2023/04/06 07:08:24;;;;;;;15.03;10.43;;;;;;;;;;5064404;28;20318;-65
2023/04/06 07:10:52;;;;;;;15.17;9.53;;;;;;;;;;5070826;28;20208;-65
2023/04/06 07:13:23;;;;;;;15.93;9.90;;;;;;;;;;5073301;28;20205;-65
2023/04/06 07:15:51;;;;;;;12.53;9.07;;;;;;;;;;5067678;28;20653;-65
2023/04/06 07:18:20;;;;;;;11.73;9.23;;;;;;;;;;5069528;28;20274;-65
2023/04/06 07:20:47;;;;;;;13.37;9.20;;;;;;;;;;5070670;28;20250;-65
2023/04/06 07:23:15;;;;;;;15.10;9.33;;;;;;;;;;5060534;28;20216;-65
2023/04/06 07:25:42;;;;;;;11.07;8.67;;;;;;;;;;5062286;28;20213;-64
2023/04/06 07:28:10;;;;;;;13.20;8.97;;;;;;;;;;5060814;28;20251;-65
2023/04/06 07:30:38;;;;;;;11.47;8.70;;;;;;;;;;5061736;28;20639;-64
2023/04/06 07:33:06;;;;;;;12.63;9.07;;;;;;;;;;5060877;28;21048;-65
2023/04/06 07:35:34;;;;;;;15.80;9.87;;;;;;;;;;5076103;28;20248;-65
2023/04/06 07:38:02;;;;;;;12.27;8.40;;;;;;;;;;5064183;28;20304;-65
2023/04/06 07:40:31;;;;;;;10.03;8.43;;;;;;;;;;5081281;28;20205;-65
2023/04/06 07:42:59;;;;;;;11.70;8.40;;;;;;;;;;5091313;28;20204;-65
2023/04/06 07:45:26;;;;;;;12.00;8.07;;;;;;;;;;5074370;28;20205;-65
2023/04/06 07:47:54;;;;;;;10.60;7.97;;;;;;;;;;5078756;28;20278;-65
2023/04/06 07:50:22;;;;;;;11.50;8.10;;;;;;;;;;5087574;28;20201;-64
2023/04/06 07:52:50;;;;;;;7.97;6.80;;;;;;;;;;5084191;28;20716;-64
2023/04/06 07:55:18;;;;;;;9.57;7.63;;;;;;;;;;5067705;28;20213;-63
2023/04/06 07:57:46;;;;;;;10.67;6.97;;;;;;;;;;5067813;28;20221;-65
2023/04/06 08:00:14;;;;;;;10.93;7.60;;;;;;;;;;5079390;28;20205;-65
2023/04/06 08:02:41;;;;;;;8.63;7.23;;;;;;;;;;5079221;28;20614;-65
2023/04/06 08:05:10;;;;;;;8.03;6.57;;;;;;;;;;5065264;28;20197;-65
2023/04/06 08:07:37;;;;;;;8.47;6.53;;;;;;;;;;5064632;28;20698;-63
2023/04/06 08:10:05;;;;;;;8.87;6.57;;;;;;;;;;5071484;28;20205;-65
2023/04/06 08:12:33;;;;;;;9.70;6.33;;;;;;;;;;5071599;28;20213;-65
2023/04/06 08:15:02;;;;;;;8.57;5.93;;;;;;;;;;5074313;28;20717;-65
2023/04/06 08:17:30;;;;;;;11.67;5.93;;;;;;;;;;5074639;28;20232;-65
2023/04/06 08:19:58;;;;;;;7.30;5.80;;;;;;;;;;5072187;28;20685;-65
2023/04/06 08:22:26;;;;;;;6.77;5.57;;;;;;;;;;5074186;28;20298;-65
2023/04/06 08:24:53;;;;;;;10.10;6.20;;;;;;;;;;5072027;28;20205;-64
2023/04/06 08:27:21;;;;;;;7.03;4.90;;;;;;;;;;5090423;28;20888;-65
2023/04/06 08:29:50;;;;;;;6.23;4.90;;;;;;;;;;5074137;28;20197;-63
2023/04/06 08:32:19;;;;;;;6.20;5.57;;;;;;;;;;5074342;28;20208;-64
2023/04/06 08:34:46;;;;;;;4.40;4.00;;;;;;;;;;5074550;28;20200;-64
2023/04/06 08:37:14;;;;;;;4.83;3.93;;;;;;;;;;5074646;28;20240;-65
2023/04/06 08:39:41;;;;;;;5.53;4.13;;;;;;;;;;5065730;28;20200;-63
2023/04/06 08:42:19;;;;;;;3.90;3.50;;;;;;;;;;5066944;28;20739;-65
2023/04/06 08:44:47;;;;;;;7.33;4.43;;;;;;;;;;5054579;28;20295;-63
2023/04/06 08:47:14;;;;;;;5.00;4.00;;;;;;;;;;5065893;28;20595;-64
2023/04/06 08:49:42;;;;;;;5.70;4.30;;;;;;;;;;5085107;28;20270;-64
2023/04/06 08:52:11;;;;;;;4.47;3.97;;;;;;;;;;5082751;28;20207;-64
2023/04/06 08:54:39;;;;;;;5.27;3.93;;;;;;;;;;5067603;28;20205;-64
2023/04/06 08:57:07;;;;;;;4.60;4.20;;;;;;;;;;5078957;28;20217;-65
2023/04/06 08:59:36;;;;;;;5.33;4.40;;;;;;;;;;5069259;28;20253;-65
2023/04/06 09:02:07;;;;;;;5.30;4.80;;;;;;;;;;5067879;28;20658;-65
2023/04/06 09:04:36;;;;;;;5.00;4.40;;;;;;;;;;5062767;28;20758;-65
2023/04/06 09:07:03;;;;;;;4.97;4.30;;;;;;;;;;5069700;28;20221;-64
2023/04/06 09:09:31;;;;;;;5.90;4.77;;;;;;;;;;5063507;28;20538;-65
2023/04/06 09:12:05;;;;;;;5.13;4.63;;;;;;;;;;5076064;28;20575;-66
2023/04/06 09:14:40;;;;;;;5.33;4.83;;;;;;;;;;5081171;28;20203;-65
2023/04/06 09:17:07;;;;;;;5.07;4.27;;;;;;;;;;5082128;28;20232;-65
2023/04/06 09:19:34;;;;;;;4.93;4.43;;;;;;;;;;5066355;28;20221;-65
2023/04/06 09:22:07;;;;;;;5.60;4.87;;;;;;;;;;5067170;28;20345;-65
2023/04/06 09:24:43;;;;;;;5.40;4.87;;;;;;;;;;5063249;28;20250;-65
2023/04/06 09:27:11;;;;;;;5.23;4.73;;;;;;;;;;5075101;28;20204;-64
2023/04/06 09:29:38;;;;;;;5.63;4.80;;;;;;;;;;5062030;28;20212;-62
2023/04/06 09:32:07;;;;;;;8.47;4.83;;;;;;;;;;5079328;28;20764;-65
2023/04/06 09:34:34;;;;;;;6.90;5.10;;;;;;;;;;5069298;28;20205;-65
2023/04/06 09:37:12;;;;;;;5.13;4.63;;;;;;;;;;5064327;28;20694;-65
2023/04/06 09:39:40;;;;;;;5.87;5.27;;;;;;;;;;5063211;28;20196;-65
2023/04/06 09:42:07;;;;;;;5.50;4.87;;;;;;;;;;5080875;28;20209;-65
2023/04/06 09:44:34;;;;;;;5.43;4.80;;;;;;;;;;5062395;28;20735;-65
2023/04/06 09:47:04;;;;;;;6.23;5.27;;;;;;;;;;5076491;28;20240;-63
2023/04/06 09:49:33;;;;;;;5.77;5.17;;;;;;;;;;5081200;28;20259;-65
2023/04/06 09:52:02;;;;;;;9.47;5.90;;;;;;;;;;5063874;28;20673;-65
2023/04/06 09:54:30;;;;;;;5.93;4.90;;;;;;;;;;5079486;28;20196;-66
2023/04/06 09:57:14;;;;;;;6.47;5.43;;;;;;;;;;5062772;28;20217;-65
2023/04/06 09:59:45;;;;;;;9.73;6.93;;;;;;;;;;5083279;28;20197;-65
2023/04/06 10:02:19;;;;;;;5.33;4.80;;;;;;;;;;5057582;28;20651;-65
2023/04/06 10:04:54;;;;;;;5.43;4.93;;;;;;;;;;5081887;28;20608;-65
2023/04/06 10:07:22;;;;;;;6.40;5.07;;;;;;;;;;5076398;28;20216;-64
2023/04/06 10:09:50;;;;;;;7.57;4.83;;;;;;;;;;5067769;28;20231;-65
2023/04/06 10:12:17;;;;;;;5.97;4.83;;;;;;;;;;5068803;28;20262;-65
2023/04/06 10:14:45;;;;;;;5.30;4.80;;;;;;;;;;5066403;28;20209;-64
2023/04/06 10:17:12;;;;;;;6.10;5.40;;;;;;;;;;5063229;28;20198;-64
2023/04/06 10:19:45;;;;;;;5.13;4.60;;;;;;;;;;5061283;28;20200;-66
2023/04/06 10:22:16;;;;;;;7.07;4.83;;;;;;;;;;5063727;28;20207;-65
2023/04/06 10:24:43;;;;;;;5.60;5.10;;;;;;;;;;5083993;28;20201;-65
2023/04/06 10:27:11;;;;;;;5.50;4.90;;;;;;;;;;5060104;28;20205;-65
2023/04/06 10:29:46;;;;;;;5.73;5.10;;;;;;;;;;5079102;28;20643;-65
2023/04/06 10:32:13;;;;;;;5.50;4.90;;;;;;;;;;5084901;28;20654;-63
2023/04/06 10:34:41;;;;;;;5.53;5.00;;;;;;;;;;5080916;28;20544;-64
2023/04/06 10:37:12;;;;;;;6.23;5.07;;;;;;;;;;5062740;28;20204;-65
2023/04/06 10:39:46;;;;;;;6.03;5.37;;;;;;;;;;5085404;28;20200;-65
2023/04/06 10:42:14;;;;;;;6.90;5.37;;;;;;;;;;5075579;28;20300;-65
2023/04/06 10:44:45;;;;;;;6.73;5.60;;;;;;;;;;5060974;28;20738;-65
2023/04/06 10:47:18;;;;;;;6.83;4.47;;;;;;;;;;5076028;28;20565;-64
2023/04/06 10:49:46;;;;;;;4.77;4.37;;;;;;;;;;5073695;28;20244;-65
2023/04/06 10:52:13;;;;;;;5.17;4.67;;;;;;;;;;5075779;28;20299;-65
2023/04/06 10:54:45;;;;;;;6.53;5.20;;;;;;;;;;5073199;28;20620;-64
2023/04/06 10:57:15;;;;;;;5.40;4.90;;;;;;;;;;5075253;28;20282;-64
2023/04/06 10:59:43;;;;;;;5.53;4.87;;;;;;;;;;5060734;28;20197;-64
2023/04/06 11:02:21;;;;;;;6.63;5.50;;;;;;;;;;5074960;28;20201;-64
2023/04/06 11:04:56;;;;;;;4.60;4.20;;;;;;;;;;5075087;28;20201;-64
2023/04/06 11:07:24;;;;;;;5.33;4.83;;;;;;;;;;5074805;28;20612;-64
2023/04/06 11:09:52;;;;;;;6.40;4.83;;;;;;;;;;5063979;28;20607;-69
2023/04/06 11:12:39;;;;;;;5.33;4.70;;;;;;;;;;5080416;28;20682;-65
2023/04/06 11:15:07;;;;;;;5.63;4.60;;;;;;;;;;5078989;28;20200;-65
2023/04/06 11:17:35;;;;;;;5.90;5.00;;;;;;;;;;5064410;28;20260;-64
2023/04/06 11:20:04;;;;;;;5.60;5.00;;;;;;;;;;5077739;28;20236;-65
2023/04/06 11:22:32;;;;;;;5.50;5.00;;;;;;;;;;5078617;28;20307;-63
2023/04/06 11:25:06;;;;;;;6.17;5.10;;;;;;;;;;5080458;28;20205;-64
2023/04/06 11:27:34;;;;;;;7.00;5.40;;;;;;;;;;5079379;28;20232;-65
2023/04/06 11:30:02;;;;;;;4.80;4.40;;;;;;;;;;5063346;28;20218;-65
2023/04/06 11:32:30;;;;;;;5.87;5.27;;;;;;;;;;5063462;28;20205;-65
2023/04/06 11:34:59;;;;;;;6.10;5.13;;;;;;;;;;5074321;28;20703;-64
2023/04/06 11:37:27;;;;;;;5.10;4.60;;;;;;;;;;5065629;28;20205;-63
2023/04/06 11:39:56;;;;;;;5.37;4.87;;;;;;;;;;5070437;28;20205;-63
2023/04/06 11:42:25;;;;;;;6.13;5.00;;;;;;;;;;5082537;28;20196;-66
2023/04/06 11:44:54;;;;;;;5.13;4.63;;;;;;;;;;5061423;28;20261;-63
2023/04/06 11:47:30;;;;;;;6.07;5.10;;;;;;;;;;5083182;28;20204;-63
2023/04/06 11:50:05;;;;;;;5.57;4.97;;;;;;;;;;5080337;28;20243;-65
2023/04/06 11:52:33;;;;;;;6.27;5.03;;;;;;;;;;5080375;28;20246;-65
2023/04/06 11:55:11;;;;;;;5.50;5.00;;;;;;;;;;5051602;28;20213;-63
2023/04/06 11:57:38;;;;;;;5.47;4.30;;;;;;;;;;5079318;28;20671;-65
2023/04/06 12:00:06;;;;;;;5.37;4.50;;;;;;;;;;5076662;28;20197;-66
2023/04/06 12:02:34;;;;;;;5.10;4.60;;;;;;;;;;5078060;28;20201;-65
2023/04/06 12:05:01;;;;;;;5.30;4.80;;;;;;;;;;5059934;28;20296;-66
2023/04/06 12:07:30;;;;;;;6.33;5.30;;;;;;;;;;5054619;28;20204;-64
2023/04/06 12:09:57;;;;;;;6.07;5.57;;;;;;;;;;5066525;28;20323;-64
2023/04/06 12:12:25;;;;;;;5.70;5.17;;;;;;;;;;5082106;28;20209;-65
2023/04/06 12:14:53;;;;;;;5.97;5.27;;;;;;;;;;5067697;28;20283;-64
2023/04/06 12:17:20;;;;;;;5.77;5.17;;;;;;;;;;5086957;28;20236;-64
2023/04/06 12:19:48;;;;;;;5.80;4.90;;;;;;;;;;5063302;28;20231;-64
2023/04/06 12:22:15;;;;;;;5.00;4.60;;;;;;;;;;5079090;28;20194;-65
2023/04/06 12:24:43;;;;;;;6.40;5.13;;;;;;;;;;5062602;28;20378;-65
2023/04/06 12:27:11;;;;;;;7.27;4.97;;;;;;;;;;5076561;28;20255;-64
2023/04/06 12:29:38;;;;;;;5.20;4.67;;;;;;;;;;5085012;28;20209;-64
2023/04/06 12:32:06;;;;;;;5.40;4.90;;;;;;;;;;5092048;28;20232;-65
2023/04/06 12:34:34;;;;;;;5.97;4.77;;;;;;;;;;5075671;28;20250;-65
2023/04/06 12:37:01;;;;;;;5.90;5.10;;;;;;;;;;5072146;28;20271;-65
2023/04/06 12:39:29;;;;;;;6.30;4.63;;;;;;;;;;5090647;28;20248;-65
2023/04/06 12:41:57;;;;;;;7.80;5.40;;;;;;;;;;5085694;28;20216;-64
2023/04/06 12:44:25;;;;;;;7.37;5.80;;;;;;;;;;5073495;28;20227;-65
2023/04/06 12:46:53;;;;;;;26.37;13.90;;;;;;;;;;5081636;28;20206;-64
2023/04/06 12:49:21;;;;;;;22.50;12.47;;;;;;;;;;5070128;28;20232;-65
2023/04/06 12:51:49;;;;;;;5.33;4.83;;;;;;;;;;5068348;28;20228;-65
2023/04/06 12:54:17;;;;;;;4.93;4.37;;;;;;;;;;5071607;28;20239;-64
2023/04/06 12:56:45;;;;;;;5.80;4.80;;;;;;;;;;5072306;28;20232;-65
2023/04/06 12:59:12;;;;;;;4.93;4.47;;;;;;;;;;5069516;28;20232;-64
2023/04/06 13:01:40;;;;;;;6.77;5.00;;;;;;;;;;5061478;28;20225;-65
2023/04/06 13:04:07;;;;;;;6.47;5.10;;;;;;;;;;5087943;28;20736;-64
2023/04/06 13:06:35;;;;;;;5.53;4.37;;;;;;;;;;5069381;28;20274;-64
2023/04/06 13:09:02;;;;;;;5.83;5.23;;;;;;;;;;5067069;28;20298;-62
2023/04/06 13:11:30;;;;;;;5.13;4.63;;;;;;;;;;5083985;28;20205;-65
2023/04/06 13:13:57;;;;;;;5.23;4.67;;;;;;;;;;5072847;28;20608;-65
2023/04/06 13:16:25;;;;;;;7.40;4.90;;;;;;;;;;5087709;28;20215;-65
2023/04/06 13:18:52;;;;;;;5.17;4.67;;;;;;;;;;5067758;28;20260;-65
2023/04/06 13:21:20;;;;;;;11.93;7.40;;;;;;;;;;5069271;28;20207;-63
2023/04/06 13:23:48;;;;;;;6.83;5.27;;;;;;;;;;5087362;28;20279;-65
2023/04/06 13:26:16;;;;;;;10.10;5.33;;;;;;;;;;5068660;28;20625;-64
2023/04/06 13:28:43;;;;;;;6.37;4.30;;;;;;;;;;5066482;28;20232;-64
2023/04/06 13:31:11;;;;;;;17.90;5.37;;;;;;;;;;5063039;28;20222;-65
2023/04/06 13:33:40;;;;;;;5.10;4.20;;;;;;;;;;5071782;28;20280;-65
2023/04/06 13:36:08;;;;;;;4.63;4.23;;;;;;;;;;5068323;28;20220;-64
2023/04/06 13:38:38;;;;;;;8.27;4.10;;;;;;;;;;5067538;28;20320;-65
2023/04/06 13:41:06;;;;;;;5.80;4.53;;;;;;;;;;5069845;28;20748;-65
2023/04/06 13:43:33;;;;;;;6.53;4.10;;;;;;;;;;5083475;28;20212;-65
2023/04/06 13:46:01;;;;;;;5.60;4.22;;;;;;;;;;5068161;28;20224;-63
2023/04/06 13:48:28;;;;;;;4.68;4.10;;;;;;;;;;5069914;28;20598;-64
2023/04/06 13:50:56;;;;;;;4.35;3.95;;;;;;;;;;5086307;28;20209;-64
2023/04/06 13:53:23;;;;;;;6.65;4.78;;;;;;;;;;5071126;28;20266;-65
2023/04/06 13:55:54;;;;;;;5.00;4.50;;;;;;;;;;5068707;28;20238;-65
2023/04/06 13:58:21;;;;;;;5.85;4.00;;;;;;;;;;5087703;28;20224;-65
2023/04/06 14:00:49;;;;;;;5.53;4.25;;;;;;;;;;5069738;28;20215;-65
2023/04/06 14:03:16;;;;;;;4.88;3.75;;;;;;;;;;5069040;28;20208;-63
2023/04/06 14:05:45;;;;;;;5.03;4.07;;;;;;;;;;5070600;28;20714;-63
2023/04/06 14:08:13;;;;;;;5.43;3.53;;;;;;;;;;5068593;28;20308;-64
2023/04/06 14:10:41;;;;;;;3.78;3.47;;;;;;;;;;5075543;28;20723;-65
2023/04/06 14:13:09;;;;;;;5.73;4.00;;;;;;;;;;5072367;28;20205;-65
2023/04/06 14:15:37;;;;;;;4.68;4.18;;;;;;;;;;5090266;28;20193;-65
2023/04/06 14:18:04;;;;;;;5.47;3.80;;;;;;;;;;5088530;28;20721;-65
2023/04/06 14:20:32;;;;;;;5.53;4.85;;;;;;;;;;5088233;28;20197;-65
2023/04/06 14:23:01;;;;;;;4.80;4.23;;;;;;;;;;5089466;28;20677;-65
2023/04/06 14:25:30;;;;;;;8.97;7.60;;;;;;;;;;5089282;28;20537;-65
2023/04/06 14:27:58;;;;;;;6.43;5.20;;;;;;;;;;5083316;28;20304;-65
2023/04/06 14:30:25;;;;;;;5.43;3.87;;;;;;;;;;5070521;28;20229;-65
2023/04/06 14:32:53;;;;;;;5.00;3.73;;;;;;;;;;5080162;28;20208;-65
2023/04/06 14:35:20;;;;;;;7.87;5.77;;;;;;;;;;5084005;28;20205;-65